Avis, Pennsylvania
Current Conditions -  °F | °C
As of 6:54 PM on Sunday 25 Jan 2015 (Local Time) from KIPT Reporting Station
Overcast Overcast  
Wind Chill: 27°   Ceiling: 4300
Heat Index: 33°   Visibility: 10mi
Dew Point:   Wind: 7mph
Humidity: 37%   Direction: 40°NE
Pressure: 29.89"   Gusts: NA
Location:  41.18°N, 77.31°W
Report Text: KIPT 252354Z 04006KT 10SM OVC043 01/M13 A2989 RMK AO2 SLP127 T00061128 10033 20006 53024
Loading
Personal Weather Stations






























Interactive Weather Map New forecast layout! Learn more

10-Day Weather Forecast

Advertisements
Track Severe Weather on mobile